Time,TemperatureF,DewpointF,PressureIn,WindDirection,WindDirectionDegrees,WindSpeedMPH,WindSpeedGustMPH,Humidity,HourlyPrecipIn,Conditions,Clouds,dailyrainin,SolarRadiationWatts/m^2,SoftwareType,DateUTC
2013-01-16 00:02:00,33.0,13.0,-100.00,NE,52,12.0,24.0,44,0.00,,,0.00,0.000000,,2013-01-16 08:02:00,
2013-01-16 00:12:00,33.0,13.0,-100.00,NE,52,12.0,24.0,44,0.00,,,0.00,0.000000,,2013-01-16 08:12:00,
2013-01-16 00:22:00,33.0,13.0,-100.00,NE,52,12.0,24.0,44,0.00,,,0.00,0.000000,,2013-01-16 08:22:00,
2013-01-16 00:42:00,32.0,14.0,-100.00,NE,40,13.0,27.0,46,0.00,,,0.00,0.000000,,2013-01-16 08:42:00,
2013-01-16 00:52:00,32.0,14.0,-100.00,NE,40,13.0,27.0,46,0.00,,,0.00,0.000000,,2013-01-16 08:52:00,
2013-01-16 01:02:00,32.0,14.0,-100.00,NE,40,13.0,27.0,46,0.00,,,0.00,0.000000,,2013-01-16 09:02:00,
2013-01-16 01:11:00,32.0,14.0,-100.00,NE,40,13.0,27.0,46,0.00,,,0.00,0.000000,,2013-01-16 09:11:00,
2013-01-16 01:22:00,32.0,14.0,-100.00,NE,40,13.0,27.0,46,0.00,,,0.00,0.000000,,2013-01-16 09:22:00,
2013-01-16 01:43:00,32.0,13.0,-100.00,NE,39,10.0,23.0,45,0.00,,,0.00,0.000000,,2013-01-16 09:43:00,
2013-01-16 01:53:00,32.0,13.0,-100.00,NE,39,10.0,23.0,45,0.00,,,0.00,0.000000,,2013-01-16 09:53:00,
2013-01-16 02:02:00,32.0,13.0,-100.00,NE,39,10.0,23.0,45,0.00,,,0.00,0.000000,,2013-01-16 10:02:00,
2013-01-16 02:11:00,32.0,13.0,-100.00,NE,39,10.0,23.0,45,0.00,,,0.00,0.000000,,2013-01-16 10:11:00,
2013-01-16 02:22:00,32.0,13.0,-100.00,NE,39,10.0,23.0,45,0.00,,,0.00,0.000000,,2013-01-16 10:22:00,
2013-01-16 02:43:00,34.0,15.0,-100.00,NE,46,11.0,23.0,45,0.00,,,0.00,0.000000,,2013-01-16 10:43:00,
2013-01-16 02:53:00,34.0,15.0,-100.00,NE,46,11.0,23.0,45,0.00,,,0.00,0.000000,,2013-01-16 10:53:00,
2013-01-16 03:02:00,34.0,15.0,-100.00,NE,46,11.0,23.0,45,0.00,,,0.00,0.000000,,2013-01-16 11:02:00,
2013-01-16 03:11:00,34.0,15.0,-100.00,NE,46,11.0,23.0,45,0.00,,,0.00,0.000000,,2013-01-16 11:11:00,
2013-01-16 03:22:00,34.0,15.0,-100.00,NE,46,11.0,23.0,45,0.00,,,0.00,0.000000,,2013-01-16 11:22:00,
2013-01-16 03:43:00,33.0,15.0,-100.00,NE,55,10.0,24.0,48,0.00,,,0.00,0.000000,,2013-01-16 11:43:00,
2013-01-16 03:53:00,33.0,15.0,-100.00,NE,55,10.0,24.0,48,0.00,,,0.00,0.000000,,2013-01-16 11:53:00,
2013-01-16 04:02:00,33.0,15.0,-100.00,NE,55,10.0,24.0,48,0.00,,,0.00,0.000000,,2013-01-16 12:02:00,
2013-01-16 04:12:00,33.0,15.0,-100.00,NE,55,10.0,24.0,48,0.00,,,0.00,0.000000,,2013-01-16 12:12:00,
2013-01-16 04:22:00,33.0,15.0,-100.00,NE,55,10.0,24.0,48,0.00,,,0.00,0.000000,,2013-01-16 12:22:00,
2013-01-16 04:43:00,33.0,15.0,-100.00,NE,48,10.0,20.0,48,0.00,,,0.00,0.000000,,2013-01-16 12:43:00,
2013-01-16 04:53:00,33.0,15.0,-100.00,NE,48,10.0,20.0,48,0.00,,,0.00,0.000000,,2013-01-16 12:53:00,
2013-01-16 05:02:00,33.0,15.0,-100.00,NE,48,10.0,20.0,48,0.00,,,0.00,0.000000,,2013-01-16 13:02:00,
2013-01-16 05:12:00,33.0,15.0,-100.00,NE,48,10.0,20.0,48,0.00,,,0.00,0.000000,,2013-01-16 13:12:00,
2013-01-16 05:22:00,33.0,15.0,-100.00,NE,48,10.0,20.0,48,0.00,,,0.00,0.000000,,2013-01-16 13:22:00,
2013-01-16 05:43:00,35.0,16.0,-100.00,NE,50,11.0,24.0,46,0.00,,,0.00,0.000000,,2013-01-16 13:43:00,
2013-01-16 05:53:00,35.0,16.0,-100.00,NE,50,11.0,24.0,46,0.00,,,0.00,0.000000,,2013-01-16 13:53:00,
2013-01-16 06:02:00,35.0,16.0,-100.00,NE,50,11.0,24.0,46,0.00,,,0.00,0.000000,,2013-01-16 14:02:00,
2013-01-16 06:12:00,35.0,16.0,-100.00,NE,50,11.0,24.0,46,0.00,,,0.00,0.000000,,2013-01-16 14:12:00,
2013-01-16 06:22:00,35.0,16.0,-100.00,NE,50,11.0,24.0,46,0.00,,,0.00,0.000000,,2013-01-16 14:22:00,
2013-01-16 06:43:00,32.0,15.0,-100.00,NE,39,9.0,19.0,49,0.00,,,-99.99,0.000000,,2013-01-16 14:43:00,
2013-01-16 06:53:00,32.0,15.0,-100.00,NE,39,9.0,19.0,49,0.00,,,-99.99,0.000000,,2013-01-16 14:53:00,
2013-01-16 07:03:00,32.0,15.0,-100.00,NE,39,9.0,19.0,49,0.00,,,-99.99,0.000000,,2013-01-16 15:03:00,
2013-01-16 07:12:00,32.0,15.0,-100.00,NE,39,9.0,19.0,49,0.00,,,-99.99,0.000000,,2013-01-16 15:12:00,
2013-01-16 07:22:00,32.0,15.0,-100.00,NE,39,9.0,19.0,49,0.00,,,-99.99,0.000000,,2013-01-16 15:22:00,
2013-01-16 07:43:00,34.0,16.0,-100.00,NE,41,9.0,20.0,47,0.00,,,-99.99,5.000000,,2013-01-16 15:43:00,
2013-01-16 07:53:00,34.0,16.0,-100.00,NE,41,9.0,20.0,47,0.00,,,-99.99,5.000000,,2013-01-16 15:53:00,
2013-01-16 08:03:00,34.0,16.0,-100.00,NE,41,9.0,20.0,47,0.00,,,-99.99,5.000000,,2013-01-16 16:03:00,
2013-01-16 08:12:00,34.0,16.0,-100.00,NE,41,9.0,20.0,47,0.00,,,-99.99,5.000000,,2013-01-16 16:12:00,
2013-01-16 08:22:00,34.0,16.0,-100.00,NE,41,9.0,20.0,47,0.00,,,-99.99,5.000000,,2013-01-16 16:22:00,
2013-01-16 09:44:00,38.0,16.0,-100.00,NE,51,11.0,23.0,41,-99.99,,,0.00,245.000000,,2013-01-16 17:44:00,
2013-01-16 09:53:00,38.0,16.0,-100.00,NE,51,11.0,23.0,41,-99.99,,,0.00,245.000000,,2013-01-16 17:53:00,
2013-01-16 10:02:00,38.0,16.0,-100.00,NE,51,11.0,23.0,41,-99.99,,,0.00,245.000000,,2013-01-16 18:02:00,
2013-01-16 10:12:00,38.0,16.0,-100.00,NE,51,11.0,23.0,41,-99.99,,,0.00,245.000000,,2013-01-16 18:12:00,
2013-01-16 10:22:00,38.0,16.0,-100.00,NE,51,11.0,23.0,41,-99.99,,,0.00,245.000000,,2013-01-16 18:22:00,
2013-01-16 10:43:00,43.0,20.0,-100.00,NE,44,9.0,21.0,39,0.00,,,0.00,597.000000,,2013-01-16 18:43:00,
2013-01-16 10:53:00,43.0,20.0,-100.00,NE,44,9.0,21.0,39,0.00,,,0.00,597.000000,,2013-01-16 18:53:00,
2013-01-16 11:02:00,43.0,20.0,-100.00,NE,44,9.0,21.0,39,0.00,,,0.00,597.000000,,2013-01-16 19:02:00,
2013-01-16 11:12:00,43.0,20.0,-100.00,NE,44,9.0,21.0,39,0.00,,,0.00,597.000000,,2013-01-16 19:12:00,
2013-01-16 11:22:00,43.0,20.0,-100.00,NE,44,9.0,21.0,39,0.00,,,0.00,597.000000,,2013-01-16 19:22:00,
2013-01-16 11:43:00,43.0,19.0,-100.00,NE,45,9.0,20.0,38,0.00,,,0.00,711.000000,,2013-01-16 19:43:00,
2013-01-16 11:53:00,43.0,19.0,-100.00,NE,45,9.0,20.0,38,0.00,,,0.00,711.000000,,2013-01-16 19:53:00,
2013-01-16 12:03:00,43.0,19.0,-100.00,NE,45,9.0,20.0,38,0.00,,,0.00,711.000000,,2013-01-16 20:03:00,
2013-01-16 12:12:00,43.0,19.0,-100.00,NE,45,9.0,20.0,38,0.00,,,0.00,711.000000,,2013-01-16 20:12:00,
2013-01-16 12:22:00,43.0,19.0,-100.00,NE,45,9.0,20.0,38,0.00,,,0.00,711.000000,,2013-01-16 20:22:00,
2013-01-16 12:43:00,42.0,18.0,-100.00,NE,49,10.0,21.0,38,0.00,,,0.00,753.000000,,2013-01-16 20:43:00,
2013-01-16 12:53:00,42.0,18.0,-100.00,NE,49,10.0,21.0,38,0.00,,,0.00,753.000000,,2013-01-16 20:53:00,
2013-01-16 13:02:00,42.0,18.0,-100.00,NE,49,10.0,21.0,38,0.00,,,0.00,753.000000,,2013-01-16 21:02:00,
2013-01-16 13:12:00,42.0,18.0,-100.00,NE,49,10.0,21.0,38,0.00,,,0.00,753.000000,,2013-01-16 21:12:00,
2013-01-16 13:22:00,42.0,18.0,-100.00,NE,49,10.0,21.0,38,0.00,,,0.00,753.000000,,2013-01-16 21:22:00,
2013-01-16 13:43:00,41.0,19.0,-100.00,NE,45,10.0,21.0,40,0.00,,,0.00,470.000000,,2013-01-16 21:43:00,
2013-01-16 13:53:00,41.0,19.0,-100.00,NE,45,10.0,21.0,40,0.00,,,0.00,470.000000,,2013-01-16 21:53:00,
2013-01-16 14:02:00,41.0,19.0,-100.00,NE,45,10.0,21.0,40,0.00,,,0.00,470.000000,,2013-01-16 22:02:00,
2013-01-16 14:12:00,41.0,19.0,-100.00,NE,45,10.0,21.0,40,0.00,,,0.00,470.000000,,2013-01-16 22:12:00,
2013-01-16 14:22:00,41.0,19.0,-100.00,NE,45,10.0,21.0,40,0.00,,,0.00,470.000000,,2013-01-16 22:22:00,
2013-01-16 14:43:00,41.0,18.0,-100.00,NNE,30,13.0,25.0,39,0.00,,,0.00,370.000000,,2013-01-16 22:43:00,
2013-01-16 14:53:00,41.0,18.0,-100.00,NNE,30,13.0,25.0,39,0.00,,,0.00,370.000000,,2013-01-16 22:53:00,
2013-01-16 15:02:00,41.0,18.0,-100.00,NNE,30,13.0,25.0,39,0.00,,,0.00,370.000000,,2013-01-16 23:02:00,
2013-01-16 15:12:00,41.0,18.0,-100.00,NNE,30,13.0,25.0,39,0.00,,,0.00,370.000000,,2013-01-16 23:12:00,
2013-01-16 15:22:00,41.0,18.0,-100.00,NNE,30,13.0,25.0,39,0.00,,,0.00,370.000000,,2013-01-16 23:22:00,
2013-01-16 15:43:00,39.0,17.0,-100.00,NNE,29,13.0,23.0,40,0.00,,,-99.99,414.000000,,2013-01-16 23:43:00,
2013-01-16 15:53:00,39.0,17.0,-100.00,NNE,29,13.0,23.0,40,0.00,,,-99.99,414.000000,,2013-01-16 23:53:00,
2013-01-16 16:02:00,39.0,17.0,-100.00,NNE,29,13.0,23.0,40,0.00,,,-99.99,414.000000,,2013-01-17 00:02:00,
2013-01-16 16:12:00,39.0,17.0,-100.00,NNE,29,13.0,23.0,40,0.00,,,-99.99,414.000000,,2013-01-17 00:12:00,
2013-01-16 16:22:00,39.0,17.0,-100.00,NNE,29,13.0,23.0,40,0.00,,,-99.99,414.000000,,2013-01-17 00:22:00,
2013-01-16 16:42:00,38.0,16.0,-100.00,NNE,24,11.0,24.0,40,0.00,,,0.00,81.000000,,2013-01-17 00:42:00,
2013-01-16 16:52:00,38.0,16.0,-100.00,NNE,24,11.0,24.0,40,0.00,,,0.00,81.000000,,2013-01-17 00:52:00,
2013-01-16 17:02:00,38.0,16.0,-100.00,NNE,24,11.0,24.0,40,0.00,,,0.00,81.000000,,2013-01-17 01:02:00,
2013-01-16 17:12:00,38.0,16.0,-100.00,NNE,24,11.0,24.0,40,0.00,,,0.00,81.000000,,2013-01-17 01:12:00,
2013-01-16 17:22:00,38.0,16.0,-100.00,NNE,24,11.0,24.0,40,0.00,,,0.00,81.000000,,2013-01-17 01:22:00,
2013-01-16 17:43:00,37.0,16.0,-100.00,NE,36,10.0,24.0,41,0.00,,,0.00,9.000000,,2013-01-17 01:43:00,
2013-01-16 17:52:00,37.0,16.0,-100.00,NE,36,10.0,24.0,41,0.00,,,0.00,9.000000,,2013-01-17 01:52:00,
2013-01-16 18:02:00,37.0,16.0,-100.00,NE,36,10.0,24.0,41,0.00,,,0.00,9.000000,,2013-01-17 02:02:00,
2013-01-16 18:12:00,37.0,16.0,-100.00,NE,36,10.0,24.0,41,0.00,,,0.00,9.000000,,2013-01-17 02:12:00,
2013-01-16 18:22:00,37.0,16.0,-100.00,NE,36,10.0,24.0,41,0.00,,,0.00,9.000000,,2013-01-17 02:22:00,
2013-01-16 19:02:00,39.0,17.0,-100.00,NE,34,11.0,20.0,41,0.00,,,0.00,0.000000,,2013-01-17 03:02:00,
2013-01-16 19:12:00,39.0,17.0,-100.00,NE,34,11.0,20.0,41,0.00,,,0.00,0.000000,,2013-01-17 03:12:00,
2013-01-16 19:22:00,39.0,17.0,-100.00,NE,34,11.0,20.0,41,0.00,,,0.00,0.000000,,2013-01-17 03:22:00,
2013-01-16 19:43:00,39.0,17.0,-100.00,NE,35,10.0,24.0,41,0.00,,,0.00,0.000000,,2013-01-17 03:43:00,
2013-01-16 19:52:00,39.0,17.0,-100.00,NE,35,10.0,24.0,41,0.00,,,0.00,0.000000,,2013-01-17 03:52:00,
2013-01-16 20:02:00,39.0,17.0,-100.00,NE,35,10.0,24.0,41,0.00,,,0.00,0.000000,,2013-01-17 04:02:00,
2013-01-16 20:12:00,39.0,17.0,-100.00,NE,35,10.0,24.0,41,0.00,,,0.00,0.000000,,2013-01-17 04:12:00,
2013-01-16 20:22:00,39.0,17.0,-100.00,NE,35,10.0,24.0,41,0.00,,,0.00,0.000000,,2013-01-17 04:22:00,
2013-01-16 20:43:00,37.0,14.0,-100.00,NE,40,10.0,20.0,39,0.00,,,0.00,0.000000,,2013-01-17 04:43:00,
2013-01-16 20:52:00,37.0,14.0,-100.00,NE,40,10.0,20.0,39,0.00,,,0.00,0.000000,,2013-01-17 04:52:00,
2013-01-16 21:04:00,37.0,14.0,-100.00,NE,40,10.0,20.0,39,0.00,,,0.00,0.000000,,2013-01-17 05:04:00,
2013-01-16 21:12:00,37.0,14.0,-100.00,NE,40,10.0,20.0,39,0.00,,,0.00,0.000000,,2013-01-17 05:12:00,
2013-01-16 21:22:00,37.0,14.0,-100.00,NE,40,10.0,20.0,39,0.00,,,0.00,0.000000,,2013-01-17 05:22:00,
2013-01-16 21:43:00,38.0,16.0,-100.00,NE,43,10.0,24.0,40,0.00,,,0.00,0.000000,,2013-01-17 05:43:00,
2013-01-16 21:53:00,38.0,16.0,-100.00,NE,43,10.0,24.0,40,0.00,,,0.00,0.000000,,2013-01-17 05:53:00,
2013-01-16 22:02:00,38.0,16.0,-100.00,NE,43,10.0,24.0,40,0.00,,,0.00,0.000000,,2013-01-17 06:02:00,
2013-01-16 22:11:00,38.0,16.0,-100.00,NE,43,10.0,24.0,40,0.00,,,0.00,0.000000,,2013-01-17 06:11:00,
2013-01-16 22:22:00,38.0,16.0,-100.00,NE,43,10.0,24.0,40,0.00,,,0.00,0.000000,,2013-01-17 06:22:00,
2013-01-16 22:42:00,37.0,13.0,-100.00,NE,44,10.0,21.0,37,0.00,,,0.00,0.000000,,2013-01-17 06:42:00,
2013-01-16 22:52:00,37.0,13.0,-100.00,NE,44,10.0,21.0,37,0.00,,,0.00,0.000000,,2013-01-17 06:52:00,
2013-01-16 23:02:00,37.0,13.0,-100.00,NE,44,10.0,21.0,37,0.00,,,0.00,0.000000,,2013-01-17 07:02:00,
2013-01-16 23:12:00,37.0,13.0,-100.00,NE,44,10.0,21.0,37,0.00,,,0.00,0.000000,,2013-01-17 07:12:00,
2013-01-16 23:22:00,37.0,13.0,-100.00,NE,44,10.0,21.0,37,0.00,,,0.00,0.000000,,2013-01-17 07:22:00,
2013-01-16 23:42:00,38.0,13.0,-100.00,NE,41,10.0,23.0,36,0.00,,,0.00,0.000000,,2013-01-17 07:42:00,
2013-01-16 23:52:00,38.0,13.0,-100.00,NE,41,10.0,23.0,36,0.00,,,0.00,0.000000,,2013-01-17 07:52:00,